Time;durP1;ratioP1;P1;durP2;ratioP2;P2;SDS_P1;SDS_P2;PMS_P1;PMS_P2;Temp;Humidity;BMP_temperature;BMP_pressure;BME280_temperature;BME280_humidity;BME280_pressure;Samples;Min_cycle;Max_cycle;Signal;HPM_P1;HPM_P2
2021/01/08 00:00:25;;;;;;;30.27;19.07;;;;;;;3.33;100.00;97538.88;5093762;28;20235;-71
2021/01/08 00:02:52;;;;;;;28.43;19.27;;;;;;;3.32;100.00;97537.25;5093599;28;20205;-71
2021/01/08 00:05:18;;;;;;;27.97;19.40;;;;;;;3.43;100.00;97533.19;5093634;28;20299;-70
2021/01/08 00:07:44;;;;;;;27.53;19.10;;;;;;;3.49;100.00;97525.72;5093196;28;20232;-69
2021/01/08 00:10:11;;;;;;;27.90;17.90;;;;;;;3.42;100.00;97526.13;5093565;28;20320;-70
2021/01/08 00:12:37;;;;;;;28.33;18.73;;;;;;;3.21;100.00;97527.72;5074152;28;20289;-69
2021/01/08 00:15:07;;;;;;;30.70;19.63;;;;;;;3.19;100.00;97527.19;5072792;28;20312;-70
2021/01/08 00:17:34;;;;;;;26.93;18.33;;;;;;;3.18;100.00;97528.28;5072867;28;20316;-70
2021/01/08 00:20:00;;;;;;;30.20;20.10;;;;;;;3.42;100.00;97523.41;5072785;28;20296;-70
2021/01/08 00:22:27;;;;;;;27.67;18.50;;;;;;;3.34;100.00;97521.41;5088807;28;20690;-69
2021/01/08 00:24:53;;;;;;;26.53;17.70;;;;;;;3.36;100.00;97519.19;5092932;28;20291;-69
2021/01/08 00:27:20;;;;;;;31.07;19.87;;;;;;;3.19;100.00;97526.38;5091828;28;20226;-69
2021/01/08 00:29:47;;;;;;;27.27;18.90;;;;;;;3.40;100.00;97522.91;5092942;28;20240;-70
2021/01/08 00:32:17;;;;;;;29.50;19.03;;;;;;;3.10;100.00;97520.84;5092350;28;20768;-69
2021/01/08 00:34:44;;;;;;;28.07;18.60;;;;;;;3.29;100.00;97513.34;5092431;28;20782;-70
2021/01/08 00:37:11;;;;;;;26.53;18.43;;;;;;;3.27;100.00;97512.81;5092382;28;20228;-70
2021/01/08 00:39:37;;;;;;;30.10;19.83;;;;;;;2.96;100.00;97520.03;5092871;28;20243;-69
2021/01/08 00:42:06;;;;;;;27.27;17.87;;;;;;;2.88;100.00;97520.75;5091233;28;20677;-71
2021/01/08 00:44:33;;;;;;;30.07;20.30;;;;;;;2.97;100.00;97532.56;5092394;28;20707;-72
2021/01/08 00:47:00;;;;;;;29.67;20.30;;;;;;;3.11;100.00;97527.91;5092461;28;20567;-72
2021/01/08 00:49:26;;;;;;;29.90;20.30;;;;;;;2.96;100.00;97526.28;5091116;28;20666;-71
2021/01/08 00:51:53;;;;;;;27.00;19.83;;;;;;;3.00;100.00;97529.22;5092593;28;20274;-71
2021/01/08 00:54:20;;;;;;;29.50;19.63;;;;;;;2.85;100.00;97529.50;5092198;28;20291;-71
2021/01/08 00:56:46;;;;;;;29.40;19.77;;;;;;;2.81;100.00;97525.81;5091224;28;20310;-71
2021/01/08 00:59:12;;;;;;;30.20;20.10;;;;;;;3.04;100.00;97525.59;5092747;28;20209;-70
2021/01/08 01:34:19;;;;;;;33.33;20.07;;;;;;;2.45;100.00;97539.25;5109371;27;20552;-71
2021/01/08 01:36:46;;;;;;;35.00;21.00;;;;;;;2.64;100.00;97536.47;5109307;28;20314;-71
2021/01/08 01:39:13;;;;;;;33.47;21.13;;;;;;;2.52;100.00;97536.16;5108452;28;20237;-70
2021/01/08 01:41:42;;;;;;;33.60;20.57;;;;;;;2.79;100.00;97538.91;5109175;28;20235;-70
2021/01/08 01:44:10;;;;;;;33.73;21.83;;;;;;;2.83;100.00;97535.28;5109480;28;20321;-70
2021/01/08 01:46:36;;;;;;;34.73;22.03;;;;;;;2.87;100.00;97533.56;5109513;28;20596;-70
2021/01/08 01:49:03;;;;;;;31.93;20.70;;;;;;;2.87;100.00;97539.00;5109502;28;20212;-71
2021/01/08 01:51:29;;;;;;;33.60;20.23;;;;;;;3.02;100.00;97532.44;5109104;28;20726;-71
2021/01/08 01:53:55;;;;;;;31.07;20.50;;;;;;;2.81;100.00;97525.81;5108819;28;20322;-71
2021/01/08 01:56:21;;;;;;;29.20;20.17;;;;;;;2.81;100.00;97532.03;5109095;28;20212;-70
2021/01/08 01:58:47;;;;;;;32.83;19.87;;;;;;;2.89;100.00;97533.25;5109339;28;20294;-70
2021/01/08 02:01:13;;;;;;;32.70;20.37;;;;;;;2.96;100.00;97533.66;5109078;28;20260;-70
2021/01/08 02:03:56;;;;;;;30.53;20.20;;;;;;;2.69;100.00;97533.66;5109141;28;20204;-70
2021/01/08 02:06:30;;;;;;;30.40;19.83;;;;;;;2.74;100.00;97530.81;5109020;28;20318;-71
2021/01/08 02:09:02;;;;;;;30.87;20.50;;;;;;;2.76;100.00;97539.50;5109350;28;20301;-71
2021/01/08 02:11:33;;;;;;;29.30;20.37;;;;;;;2.55;100.00;97532.84;5109122;28;20200;-70
2021/01/08 02:14:22;;;;;;;32.67;20.47;;;;;;;2.86;100.00;97544.75;5108634;28;20224;-70
2021/01/08 02:16:50;;;;;;;28.93;20.30;;;;;;;2.88;100.00;97537.88;5108696;28;20224;-70
2021/01/08 02:19:27;;;;;;;32.33;20.80;;;;;;;2.80;100.00;97538.59;5108705;28;20200;-71
2021/01/08 02:22:03;;;;;;;31.00;20.80;;;;;;;2.80;100.00;97540.53;5108629;28;20235;-70
2021/01/08 02:24:38;;;;;;;31.93;20.93;;;;;;;2.80;100.00;97540.53;5108688;28;20286;-70
2021/01/08 02:27:05;;;;;;;31.37;20.23;;;;;;;2.81;100.00;97540.22;5107426;28;20708;-70
2021/01/08 02:29:32;;;;;;;29.57;20.30;;;;;;;2.89;100.00;97539.53;5108374;28;20294;-71
2021/01/08 02:31:58;;;;;;;31.97;20.27;;;;;;;2.77;100.00;97546.59;5108523;28;20308;-70
2021/01/08 02:34:25;;;;;;;31.50;21.63;;;;;;;2.53;100.00;97535.03;5107199;28;20204;-70
2021/01/08 02:36:52;;;;;;;32.37;20.87;;;;;;;2.37;100.00;97547.31;5107191;28;20323;-70
2021/01/08 02:39:20;;;;;;;32.70;20.80;;;;;;;2.64;100.00;97547.38;5108556;28;20231;-70
2021/01/08 02:41:50;;;;;;;29.93;19.97;;;;;;;2.78;100.00;97538.09;5108118;28;20200;-71
2021/01/08 02:44:17;;;;;;;31.13;20.53;;;;;;;2.85;100.00;97537.69;5101120;28;20669;-70
2021/01/08 02:46:44;;;;;;;34.13;20.23;;;;;;;2.65;100.00;97543.53;5094864;28;20256;-71
2021/01/08 02:49:10;;;;;;;30.70;20.27;;;;;;;2.49;100.00;97548.47;5094910;28;20201;-71
2021/01/08 02:51:37;;;;;;;32.03;20.37;;;;;;;2.46;100.00;97540.91;5094622;28;20300;-71
2021/01/08 02:54:04;;;;;;;29.63;20.17;;;;;;;2.41;100.00;97543.69;5094442;28;20331;-71
2021/01/08 02:56:46;;;;;;;30.10;19.33;;;;;;;2.36;100.00;97540.25;5093459;28;20224;-71
2021/01/08 02:59:13;;;;;;;31.20;20.73;;;;;;;2.44;100.00;97542.28;5095240;28;20298;-70
2021/01/08 03:01:40;;;;;;;29.83;20.27;;;;;;;2.69;100.00;97541.81;5093117;28;20304;-70
2021/01/08 03:04:07;;;;;;;33.77;19.53;;;;;;;2.45;100.00;97538.44;5094165;28;20200;-70
2021/01/08 03:06:33;;;;;;;28.57;18.40;;;;;;;2.13;100.00;97541.19;5094426;28;20233;-70
2021/01/08 03:09:02;;;;;;;26.93;18.43;;;;;;;2.28;100.00;97540.94;5094351;28;20628;-70
2021/01/08 03:11:29;;;;;;;28.57;18.87;;;;;;;2.62;100.00;97541.41;5084088;28;20613;-70
2021/01/08 03:13:56;;;;;;;28.40;18.17;;;;;;;2.55;100.00;97524.66;5073439;28;20225;-70
2021/01/08 03:16:23;;;;;;;27.73;17.73;;;;;;;2.28;100.00;97538.22;5073881;28;20221;-69
2021/01/08 03:18:50;;;;;;;27.37;18.63;;;;;;;2.36;100.00;97532.06;5073908;28;20666;-69
2021/01/08 03:21:16;;;;;;;28.63;18.63;;;;;;;2.39;100.00;97526.06;5080077;28;20262;-71
2021/01/08 03:23:42;;;;;;;26.70;17.70;;;;;;;2.55;100.00;97527.38;5092534;28;20354;-70
2021/01/08 03:26:08;;;;;;;26.73;18.17;;;;;;;2.47;100.00;97530.78;5093042;28;20336;-70
2021/01/08 03:28:34;;;;;;;28.07;18.17;;;;;;;2.45;100.00;97533.00;5093994;28;20754;-70
2021/01/08 03:31:00;;;;;;;30.53;18.80;;;;;;;2.30;100.00;97527.84;5092634;28;20232;-70
2021/01/08 03:33:26;;;;;;;26.63;18.20;;;;;;;2.52;100.00;97528.78;5092029;28;20224;-70
2021/01/08 03:35:52;;;;;;;27.70;18.80;;;;;;;2.56;100.00;97529.00;5093670;28;20698;-70
2021/01/08 03:38:18;;;;;;;26.43;18.37;;;;;;;2.20;100.00;97528.00;5093669;28;20236;-71
2021/01/08 03:40:44;;;;;;;26.10;18.83;;;;;;;2.28;100.00;97535.50;5093820;28;20200;-70
2021/01/08 03:43:10;;;;;;;29.77;19.00;;;;;;;2.40;100.00;97535.81;5092050;28;20649;-71
2021/01/08 03:45:38;;;;;;;30.40;19.73;;;;;;;2.22;100.00;97536.69;5093760;28;20295;-70
2021/01/08 03:48:05;;;;;;;27.40;18.63;;;;;;;2.34;100.00;97537.00;5093592;28;20260;-70
2021/01/08 03:50:31;;;;;;;31.83;20.83;;;;;;;2.07;100.00;97543.19;5093552;28;20299;-70
2021/01/08 03:52:57;;;;;;;29.90;18.70;;;;;;;2.14;100.00;97538.19;5092982;28;20255;-71
2021/01/08 03:55:23;;;;;;;28.90;19.43;;;;;;;2.30;100.00;97536.03;5093368;28;20235;-71
2021/01/08 03:57:49;;;;;;;30.73;19.53;;;;;;;2.19;100.00;97531.84;5092831;28;20319;-70
2021/01/08 04:00:15;;;;;;;29.90;19.93;;;;;;;2.36;100.00;97537.53;5093464;28;20205;-71
2021/01/08 04:02:41;;;;;;;32.53;20.37;;;;;;;2.21;100.00;97532.38;5094061;28;20295;-71
2021/01/08 04:05:09;;;;;;;35.43;20.83;;;;;;;2.03;100.00;97531.28;5094201;28;20254;-70
2021/01/08 04:07:35;;;;;;;31.07;20.80;;;;;;;2.35;100.00;97533.19;5093120;28;20671;-70
2021/01/08 04:10:01;;;;;;;29.80;19.87;;;;;;;1.96;100.00;97536.31;5093142;28;20287;-70
2021/01/08 04:12:27;;;;;;;31.67;20.30;;;;;;;2.31;100.00;97538.44;5074936;28;20674;-70
2021/01/08 04:14:53;;;;;;;31.27;20.00;;;;;;;1.97;100.00;97538.72;5072445;28;20205;-70
2021/01/08 04:17:19;;;;;;;31.43;20.20;;;;;;;1.94;100.00;97543.94;5072609;28;20274;-70
2021/01/08 04:19:48;;;;;;;34.33;20.63;;;;;;;2.14;100.00;97537.34;5072745;28;20209;-71
2021/01/08 04:22:14;;;;;;;30.67;20.67;;;;;;;2.17;100.00;97534.06;5086821;28;20204;-71
2021/01/08 04:24:41;;;;;;;30.67;20.37;;;;;;;2.20;100.00;97537.00;5092696;28;20292;-71
2021/01/08 04:27:07;;;;;;;29.57;19.93;;;;;;;2.13;100.00;97543.94;5092604;28;20679;-71
2021/01/08 04:29:33;;;;;;;29.97;20.33;;;;;;;2.32;100.00;97539.25;5092898;28;20254;-71
2021/01/08 04:31:59;;;;;;;30.83;19.03;;;;;;;2.35;100.00;97538.66;5091174;28;20868;-70
2021/01/08 04:34:25;;;;;;;30.30;19.63;;;;;;;2.40;100.00;97533.09;5092174;28;20634;-70
2021/01/08 04:36:51;;;;;;;29.63;20.10;;;;;;;2.19;100.00;97537.31;5092631;28;20228;-71
2021/01/08 04:39:20;;;;;;;29.70;19.23;;;;;;;2.19;100.00;97534.56;5092536;28;20200;-71
2021/01/08 04:41:46;;;;;;;30.07;19.33;;;;;;;2.36;100.00;97534.81;5092311;28;20299;-71
2021/01/08 04:44:12;;;;;;;27.27;19.27;;;;;;;2.55;100.00;97533.66;5091155;28;20230;-70
2021/01/08 04:46:41;;;;;;;29.73;19.37;;;;;;;2.69;100.00;97539.91;5092475;28;20351;-70
2021/01/08 04:49:08;;;;;;;26.90;17.83;;;;;;;2.70;100.00;97535.28;5092306;28;20250;-71
2021/01/08 04:51:35;;;;;;;26.30;17.50;;;;;;;2.61;100.00;97537.09;5092372;28;20299;-71
2021/01/08 04:54:03;;;;;;;24.87;16.97;;;;;;;2.17;100.00;97534.06;5090537;28;20799;-71
2021/01/08 04:56:33;;;;;;;26.27;17.23;;;;;;;2.36;100.00;97534.81;5092003;28;20698;-71
2021/01/08 04:58:58;;;;;;;26.33;17.33;;;;;;;2.26;100.00;97533.09;5092275;28;20291;-70
2021/01/08 05:01:25;;;;;;;26.47;17.33;;;;;;;2.13;100.00;97535.75;5091709;28;20693;-70
2021/01/08 05:03:53;;;;;;;29.40;17.27;;;;;;;2.08;100.00;97540.19;5091861;28;20209;-70
2021/01/08 05:06:20;;;;;;;22.33;15.93;;;;;;;2.41;100.00;97529.28;5091029;28;20200;-70
2021/01/08 05:08:46;;;;;;;23.23;16.27;;;;;;;2.19;100.00;97537.31;5092070;28;20647;-70
2021/01/08 05:11:23;;;;;;;23.67;16.10;;;;;;;2.23;100.00;97538.31;5085724;28;20700;-70
2021/01/08 05:14:01;;;;;;;24.47;16.20;;;;;;;1.99;100.00;97539.22;5070125;28;20290;-70
2021/01/08 05:16:31;;;;;;;23.60;16.07;;;;;;;2.22;100.00;97529.34;5071571;28;20736;-70
2021/01/08 05:19:03;;;;;;;24.90;15.93;;;;;;;2.57;100.00;97530.63;5072029;28;20205;-71
2021/01/08 05:21:30;;;;;;;23.97;16.27;;;;;;;2.34;100.00;97534.28;5079740;28;20204;-70
2021/01/08 05:23:59;;;;;;;26.17;17.43;;;;;;;2.35;100.00;97539.47;5091826;28;20257;-70
2021/01/08 05:26:26;;;;;;;25.20;16.73;;;;;;;2.38;100.00;97527.16;5090656;28;20315;-71
2021/01/08 05:28:57;;;;;;;24.27;17.17;;;;;;;2.54;100.00;97532.03;5091715;28;20646;-70
2021/01/08 05:31:26;;;;;;;26.00;17.77;;;;;;;2.37;100.00;97533.72;5091971;28;20204;-70
2021/01/08 05:33:53;;;;;;;25.10;17.17;;;;;;;2.47;100.00;97530.78;5091220;28;20297;-70
2021/01/08 05:36:20;;;;;;;23.33;16.77;;;;;;;1.89;100.00;97531.25;5090412;28;20206;-70
2021/01/08 05:38:50;;;;;;;28.37;18.87;;;;;;;2.24;100.00;97526.31;5090681;28;20220;-70
2021/01/08 05:41:18;;;;;;;22.43;16.00;;;;;;;2.34;100.00;97528.84;5091337;28;20200;-70
2021/01/08 05:43:46;;;;;;;26.87;16.63;;;;;;;2.48;100.00;97526.97;5090540;28;20277;-71
2021/01/08 05:46:17;;;;;;;27.10;17.60;;;;;;;2.50;100.00;97531.00;5091708;28;20645;-70
2021/01/08 05:48:48;;;;;;;28.20;16.83;;;;;;;2.40;100.00;97541.28;5091863;28;20215;-70
2021/01/08 05:51:17;;;;;;;23.83;16.33;;;;;;;2.66;100.00;97540.53;5091527;28;20760;-70
2021/01/08 05:53:47;;;;;;;22.93;15.60;;;;;;;2.67;100.00;97541.31;5090954;28;20256;-70
2021/01/08 05:56:17;;;;;;;22.33;15.90;;;;;;;2.70;100.00;97546.19;5091638;28;20555;-70
2021/01/08 05:58:48;;;;;;;24.20;16.77;;;;;;;2.47;100.00;97544.41;5091884;28;20277;-70
2021/01/08 06:01:15;;;;;;;22.87;16.03;;;;;;;2.58;100.00;97548.56;5090523;28;20739;-69
2021/01/08 06:03:43;;;;;;;22.97;15.00;;;;;;;2.65;100.00;97548.97;5091391;28;20573;-69
2021/01/08 06:06:10;;;;;;;22.70;15.43;;;;;;;2.52;100.00;97538.91;5090210;28;20321;-70
2021/01/08 06:08:43;;;;;;;22.80;15.97;;;;;;;2.50;100.00;97546.56;5090210;28;20681;-70
2021/01/08 06:11:19;;;;;;;22.03;15.63;;;;;;;2.57;100.00;97546.97;5085571;28;20227;-70
2021/01/08 06:13:50;;;;;;;20.33;14.90;;;;;;;2.44;100.00;97543.09;5070770;28;20652;-72
2021/01/08 06:16:19;;;;;;;21.57;14.93;;;;;;;2.58;100.00;97543.13;5069732;28;20292;-71
2021/01/08 06:18:48;;;;;;;22.77;15.87;;;;;;;2.38;100.00;97544.28;5071073;28;20209;-71
2021/01/08 06:21:14;;;;;;;22.57;14.90;;;;;;;2.34;100.00;97553.34;5080789;28;20291;-71
2021/01/08 06:23:44;;;;;;;21.57;14.90;;;;;;;2.46;100.00;97548.25;5095046;28;20287;-71
2021/01/08 06:26:18;;;;;;;22.70;16.23;;;;;;;2.28;100.00;97546.41;5095139;28;20685;-71
2021/01/08 06:28:46;;;;;;;24.50;15.27;;;;;;;1.91;100.00;97555.44;5095290;28;20200;-71
2021/01/08 06:31:21;;;;;;;24.43;16.57;;;;;;;2.01;100.00;97549.81;5094747;28;20266;-71
2021/01/08 06:33:58;;;;;;;25.93;17.23;;;;;;;2.03;100.00;97542.97;5094776;28;20228;-70
2021/01/08 06:36:29;;;;;;;23.93;16.50;;;;;;;2.06;100.00;97547.81;5094697;28;20263;-70
2021/01/08 06:38:57;;;;;;;23.60;16.23;;;;;;;2.15;100.00;97560.75;5098004;28;20246;-71
2021/01/08 06:41:23;;;;;;;24.23;16.73;;;;;;;2.19;100.00;97553.63;5094529;28;20220;-71
2021/01/08 06:43:58;;;;;;;25.90;16.70;;;;;;;2.37;100.00;97552.78;5093811;28;20236;-72
2021/01/08 06:46:39;;;;;;;26.67;17.20;;;;;;;2.36;100.00;97551.94;5095368;28;20226;-72
2021/01/08 06:49:09;;;;;;;24.70;16.93;;;;;;;2.45;100.00;97546.63;5095085;28;20575;-70
2021/01/08 06:51:40;;;;;;;25.37;17.00;;;;;;;2.32;100.00;97555.59;5089304;28;20196;-71
2021/01/08 06:54:08;;;;;;;25.33;17.27;;;;;;;2.43;100.00;97555.09;5090656;28;20307;-71
2021/01/08 06:56:37;;;;;;;24.57;17.13;;;;;;;2.47;100.00;97563.47;5093597;28;20308;-71
2021/01/08 06:59:06;;;;;;;22.73;15.77;;;;;;;2.44;100.00;97564.06;5093253;28;20210;-72
2021/01/08 07:01:57;;;;;;;28.67;17.67;;;;;;;2.37;100.00;97575.38;5093165;28;20572;-72
2021/01/08 07:04:25;;;;;;;24.33;16.33;;;;;;;2.51;100.00;97564.50;5091402;28;20213;-69
2021/01/08 07:07:00;;;;;;;25.13;17.00;;;;;;;2.34;100.00;97575.94;5090573;28;20235;-69
2021/01/08 07:09:40;;;;;;;27.40;17.43;;;;;;;2.43;100.00;97574.16;5075882;28;20211;-70
2021/01/08 07:12:11;;;;;;;24.97;17.20;;;;;;;2.52;100.00;97577.00;5093332;28;20281;-69
2021/01/08 07:14:38;;;;;;;26.37;17.80;;;;;;;2.41;100.00;97579.06;5091568;28;20230;-69
2021/01/08 07:17:06;;;;;;;24.97;17.30;;;;;;;2.57;100.00;97580.44;5089960;28;20252;-69
2021/01/08 07:19:33;;;;;;;26.27;16.93;;;;;;;2.66;100.00;97583.28;5092139;28;20266;-70
2021/01/08 07:22:03;;;;;;;26.30;17.53;;;;;;;2.55;100.00;97585.38;5090622;28;20205;-69
2021/01/08 07:24:32;;;;;;;24.97;16.60;;;;;;;2.50;100.00;97587.38;5072356;28;20577;-71
2021/01/08 07:27:18;;;;;;;27.70;17.30;;;;;;;2.57;100.00;97587.81;5091008;28;20311;-72
2021/01/08 07:30:08;;;;;;;22.20;15.63;;;;;;;2.63;100.00;97589.31;5092386;28;20303;-71
2021/01/08 07:32:44;;;;;;;21.90;16.17;;;;;;;2.73;100.00;97594.59;5090128;28;20216;-70
2021/01/08 07:35:16;;;;;;;25.53;16.30;;;;;;;2.76;100.00;97594.78;5092645;28;20709;-73
2021/01/08 07:37:59;;;;;;;23.77;16.33;;;;;;;2.67;100.00;97602.03;5091331;28;20655;-69
2021/01/08 07:40:29;;;;;;;23.70;16.10;;;;;;;2.75;100.00;97600.56;5091759;28;20206;-70
2021/01/08 07:43:06;;;;;;;23.57;16.67;;;;;;;2.76;100.00;97599.44;5093679;28;20205;-70
2021/01/08 07:45:59;;;;;;;23.20;16.00;;;;;;;2.74;100.00;97604.38;5092679;28;20218;-70
2021/01/08 07:48:38;;;;;;;25.63;16.47;;;;;;;2.73;100.00;97609.03;5093541;28;20228;-71
2021/01/08 07:51:10;;;;;;;23.03;16.93;;;;;;;2.85;100.00;97608.53;5092283;28;20763;-70
2021/01/08 07:53:43;;;;;;;22.63;15.67;;;;;;;2.98;100.00;97605.81;5092046;28;20230;-69
2021/01/08 07:56:09;;;;;;;23.80;15.57;;;;;;;2.87;100.00;97607.13;5092163;28;20213;-69
2021/01/08 07:58:36;;;;;;;27.10;16.77;;;;;;;3.05;100.00;97610.88;5092426;28;20211;-69
2021/01/08 08:01:04;;;;;;;24.47;16.00;;;;;;;2.93;100.00;97610.56;5091311;28;20212;-70
2021/01/08 08:03:33;;;;;;;22.07;15.80;;;;;;;3.14;100.00;97614.50;5092112;28;20221;-69
2021/01/08 08:06:02;;;;;;;21.57;14.70;;;;;;;3.40;100.00;97614.81;5091277;28;20219;-70
2021/01/08 08:08:29;;;;;;;21.60;15.57;;;;;;;3.83;100.00;97605.94;5092290;28;20756;-70
2021/01/08 08:11:18;;;;;;;21.90;14.40;;;;;;;3.98;100.00;97610.25;5088754;28;20201;-70
2021/01/08 08:13:44;;;;;;;22.20;15.20;;;;;;;4.16;100.00;97613.97;5071436;28;20225;-70
2021/01/08 08:16:10;;;;;;;20.97;14.33;;;;;;;3.97;100.00;97617.66;5053980;28;20201;-70
2021/01/08 08:18:49;;;;;;;21.47;14.53;;;;;;;4.28;100.00;97609.56;5072008;28;20201;-70
2021/01/08 08:21:20;;;;;;;18.53;14.03;;;;;;;4.82;100.00;97614.75;5078949;28;20300;-70
2021/01/08 08:24:04;;;;;;;17.17;13.20;;;;;;;5.27;100.00;97609.19;5091228;28;20284;-70
2021/01/08 08:26:35;;;;;;;18.80;13.93;;;;;;;5.33;100.00;97600.50;5091779;28;20230;-70
2021/01/08 08:29:07;;;;;;;18.13;14.27;;;;;;;5.53;100.00;97610.88;5092160;28;20717;-70
2021/01/08 08:31:36;;;;;;;19.13;14.30;;;;;;;6.10;100.00;97609.72;5092329;28;20207;-70
2021/01/08 08:34:04;;;;;;;16.57;12.87;;;;;;;6.38;100.00;97601.19;5090897;28;20292;-70
2021/01/08 08:36:31;;;;;;;17.90;13.67;;;;;;;6.39;100.00;97600.03;5091140;28;20574;-69
2021/01/08 08:39:12;;;;;;;16.37;13.03;;;;;;;5.71;100.00;97609.78;5092054;28;20206;-70
2021/01/08 08:41:40;;;;;;;17.03;13.27;;;;;;;6.81;100.00;97602.72;5091509;28;20200;-69
2021/01/08 08:44:11;;;;;;;15.43;12.00;;;;;;;7.33;100.00;97594.34;5090952;28;20335;-70
2021/01/08 08:46:41;;;;;;;15.67;12.43;;;;;;;7.71;100.00;97595.94;5090440;28;20224;-70
2021/01/08 08:49:11;;;;;;;16.43;12.67;;;;;;;8.02;100.00;97585.38;5091671;28;20212;-71
2021/01/08 08:51:42;;;;;;;13.40;11.57;;;;;;;8.04;100.00;97594.09;5091597;28;20665;-69
2021/01/08 08:54:09;;;;;;;14.70;12.37;;;;;;;8.88;100.00;97584.66;5089457;28;20238;-69
2021/01/08 08:56:40;;;;;;;15.00;12.47;;;;;;;9.00;100.00;97590.16;5090812;28;20594;-74
2021/01/08 08:59:07;;;;;;;13.40;12.00;;;;;;;8.86;100.00;97578.69;5090581;28;20752;-71
2021/01/08 09:01:40;;;;;;;14.77;12.07;;;;;;;8.23;100.00;97590.09;5091549;28;20614;-72
2021/01/08 09:04:08;;;;;;;14.63;12.33;;;;;;;8.59;100.00;97596.59;5091024;28;20281;-71
2021/01/08 09:06:41;;;;;;;14.63;12.13;;;;;;;8.56;100.00;97588.22;5092206;28;20309;-71
2021/01/08 09:09:18;;;;;;;11.80;10.23;;;;;;;7.92;100.00;97594.00;5091679;28;20268;-71
2021/01/08 09:11:53;;;;;;;13.03;10.40;;;;;;;7.66;100.00;97595.31;5091618;28;20665;-70
2021/01/08 09:14:21;;;;;;;12.93;11.03;;;;;;;7.57;100.00;97594.56;5090774;28;20227;-71
2021/01/08 09:16:52;;;;;;;14.00;11.43;;;;;;;6.19;100.00;97598.75;5090986;28;20269;-71
2021/01/08 09:19:56;;;;;;;14.00;11.30;;;;;;;6.21;100.00;97602.00;5091233;28;20417;-70
2021/01/08 09:22:22;;;;;;;15.07;11.37;;;;;;;6.01;100.00;97603.44;5090413;28;20285;-70
2021/01/08 09:24:57;;;;;;;14.60;12.07;;;;;;;6.58;100.00;97611.47;5090588;28;20289;-70
2021/01/08 09:27:23;;;;;;;14.33;10.60;;;;;;;7.03;100.00;97601.69;5089864;28;20293;-72
2021/01/08 09:29:49;;;;;;;15.40;11.03;;;;;;;6.67;100.00;97615.00;5090184;28;20208;-72
2021/01/08 09:32:32;;;;;;;16.07;12.43;;;;;;;6.33;100.00;97615.06;5090812;28;20742;-73
2021/01/08 09:35:04;;;;;;;18.90;13.83;;;;;;;6.42;100.00;97613.94;5090440;28;20240;-73
2021/01/08 09:37:42;;;;;;;19.27;13.43;;;;;;;5.88;100.00;97612.59;5089584;28;20281;-72
2021/01/08 09:40:10;;;;;;;18.67;13.83;;;;;;;5.76;100.00;97620.59;5090807;28;20258;-72
2021/01/08 09:42:37;;;;;;;16.83;12.50;;;;;;;6.01;100.00;97621.78;5091230;28;20680;-72
2021/01/08 09:45:25;;;;;;;21.07;13.70;;;;;;;6.62;100.00;97612.44;5090111;28;20228;-72
2021/01/08 09:47:53;;;;;;;16.87;13.60;;;;;;;6.38;100.00;97617.63;5091079;28;20311;-72
2021/01/08 09:50:38;;;;;;;18.77;14.40;;;;;;;6.65;100.00;97618.09;5090565;28;20205;-72
2021/01/08 09:53:12;;;;;;;20.57;14.50;;;;;;;7.07;100.00;97608.16;5088564;28;20234;-72
2021/01/08 09:55:38;;;;;;;19.87;15.17;;;;;;;7.46;100.00;97609.78;5093626;28;20208;-72
2021/01/08 09:58:04;;;;;;;17.40;13.67;;;;;;;7.49;100.00;97615.41;5093080;28;20302;-72
2021/01/08 10:00:36;;;;;;;18.33;14.73;;;;;;;6.95;100.00;97616.25;5093955;28;20286;-70
2021/01/08 10:03:05;;;;;;;18.63;15.07;;;;;;;6.12;100.00;97623.91;5093838;28;20751;-69
2021/01/08 10:05:35;;;;;;;21.90;15.73;;;;;;;6.21;100.00;97620.34;5094246;28;20240;-69
2021/01/08 10:08:04;;;;;;;20.53;14.50;;;;;;;5.69;100.00;97617.50;5091202;28;21023;-70
2021/01/08 10:10:30;;;;;;;19.17;15.03;;;;;;;5.48;100.00;97616.50;5093688;28;20921;-70
2021/01/08 10:12:58;;;;;;;26.23;15.10;;;;;;;5.69;100.00;97616.72;5093815;28;20248;-70
2021/01/08 10:15:38;;;;;;;19.40;14.13;;;;;;;5.62;100.00;97617.16;5094334;28;20208;-72
2021/01/08 10:18:13;;;;;;;21.03;15.23;;;;;;;5.65;100.00;97613.81;5084173;28;20243;-70
2021/01/08 10:20:41;;;;;;;21.83;14.90;;;;;;;5.88;100.00;97611.78;5074089;28;20200;-69
2021/01/08 10:23:15;;;;;;;18.17;14.03;;;;;;;5.61;100.00;97621.03;5092079;28;20678;-69
2021/01/08 10:25:43;;;;;;;20.03;14.93;;;;;;;5.46;100.00;97613.25;5093411;28;20200;-71
2021/01/08 10:28:18;;;;;;;18.43;13.83;;;;;;;5.00;100.00;97610.16;5093434;28;20221;-73
2021/01/08 10:30:46;;;;;;;20.70;13.97;;;;;;;5.11;100.00;97611.50;5093709;28;20253;-71
2021/01/08 10:33:20;;;;;;;17.80;13.43;;;;;;;5.29;100.00;97610.47;5093250;28;20320;-71
2021/01/08 10:35:49;;;;;;;19.17;13.87;;;;;;;4.90;100.00;97613.19;5093094;28;20864;-72
2021/01/08 10:38:15;;;;;;;17.17;13.17;;;;;;;4.81;100.00;97607.69;5093294;28;20306;-76
2021/01/08 10:40:49;;;;;;;17.40;13.20;;;;;;;4.45;100.00;97614.34;5085830;28;20239;-70
2021/01/08 10:43:15;;;;;;;18.40;12.73;;;;;;;4.58;100.00;97608.03;5083612;28;20221;-70
2021/01/08 10:45:44;;;;;;;19.33;13.90;;;;;;;4.57;100.00;97611.84;5088471;28;20719;-70
2021/01/08 10:48:10;;;;;;;20.13;14.20;;;;;;;4.71;100.00;97618.03;5078983;28;20358;-70
2021/01/08 10:50:40;;;;;;;17.77;13.03;;;;;;;4.53;100.00;97611.66;5068499;28;20614;-70
2021/01/08 10:53:08;;;;;;;21.03;13.80;;;;;;;4.52;100.00;97609.25;5068628;28;20236;-72
2021/01/08 10:55:34;;;;;;;19.43;14.73;;;;;;;4.73;100.00;97605.69;5067385;28;20201;-71
2021/01/08 10:58:00;;;;;;;20.13;14.50;;;;;;;4.68;100.00;97605.81;5067731;28;20225;-71
2021/01/08 11:00:27;;;;;;;22.97;14.63;;;;;;;4.38;100.00;97611.25;5069471;28;20211;-70
2021/01/08 11:02:53;;;;;;;24.37;15.50;;;;;;;4.34;100.00;97602.06;5067325;28;20236;-69
2021/01/08 11:05:22;;;;;;;21.33;15.30;;;;;;;4.75;100.00;97608.09;5065154;28;20221;-69
2021/01/08 11:07:48;;;;;;;23.03;15.40;;;;;;;4.72;100.00;97595.88;5066731;28;20748;-70
2021/01/08 11:10:15;;;;;;;23.77;15.50;;;;;;;4.91;100.00;97596.47;5066999;28;20290;-69
2021/01/08 11:12:43;;;;;;;20.57;14.80;;;;;;;4.73;100.00;97596.69;5085546;28;20208;-69
2021/01/08 11:15:09;;;;;;;21.07;15.17;;;;;;;4.06;100.00;97599.44;5087914;28;20205;-70
2021/01/08 11:17:35;;;;;;;21.37;15.43;;;;;;;4.51;100.00;97599.44;5086412;28;20237;-69
2021/01/08 11:20:03;;;;;;;22.50;15.83;;;;;;;4.20;100.00;97595.84;5086967;28;20208;-70
2021/01/08 11:22:29;;;;;;;25.33;16.93;;;;;;;4.45;100.00;97592.50;5088994;28;20271;-70
2021/01/08 11:24:57;;;;;;;24.60;15.77;;;;;;;4.70;100.00;97594.59;5087320;28;20227;-70
2021/01/08 11:27:23;;;;;;;22.63;15.43;;;;;;;4.24;100.00;97592.19;5086839;28;20752;-70
2021/01/08 11:29:49;;;;;;;19.03;14.47;;;;;;;4.48;100.00;97586.41;5089002;28;20872;-70
2021/01/08 11:32:15;;;;;;;19.40;14.07;;;;;;;4.78;100.00;97585.63;5088542;28;20212;-69
2021/01/08 11:34:42;;;;;;;20.50;14.93;;;;;;;4.55;100.00;97586.75;5088359;28;20201;-70
2021/01/08 11:37:09;;;;;;;21.10;15.07;;;;;;;4.63;100.00;97586.03;5087252;28;20256;-70
2021/01/08 11:39:43;;;;;;;18.07;13.80;;;;;;;4.37;100.00;97585.84;5087745;28;20214;-70
2021/01/08 11:42:09;;;;;;;16.80;13.93;;;;;;;4.45;100.00;97590.59;5088706;28;20741;-69
2021/01/08 11:44:35;;;;;;;20.07;14.43;;;;;;;4.61;100.00;97585.53;5086489;28;20229;-70
2021/01/08 11:47:02;;;;;;;18.70;14.27;;;;;;;4.43;100.00;97589.25;5086885;28;20307;-70
2021/01/08 11:49:28;;;;;;;18.57;14.00;;;;;;;4.33;100.00;97589.50;5086880;28;20634;-70
2021/01/08 11:51:56;;;;;;;20.27;14.17;;;;;;;4.45;100.00;97584.31;5087483;28;20201;-69
2021/01/08 11:54:23;;;;;;;18.77;13.70;;;;;;;4.55;100.00;97578.56;5087126;28;20205;-70
2021/01/08 11:56:49;;;;;;;18.77;13.90;;;;;;;4.42;100.00;97583.00;5087115;28;20256;-70
2021/01/08 11:59:16;;;;;;;18.67;13.57;;;;;;;4.63;100.00;97577.81;5087263;28;20205;-70